sensor_id;sensor_type;location;lat;lon;timestamp;pressure;altitude;pressure_sealevel;temperature;humidity
41218;BME280;26950;50.960;7.138;2024-03-23T00:54:59;99900.53;;;14.15;78.36
41218;BME280;26950;50.960;7.138;2024-03-23T00:57:24;99897.81;;;13.87;80.33
41218;BME280;26950;50.960;7.138;2024-03-23T00:59:51;99889.97;;;14.13;77.71
41218;BME280;26950;50.960;7.138;2024-03-23T01:02:16;99886.47;;;14.25;77.69
41218;BME280;26950;50.960;7.138;2024-03-23T01:04:43;99882.94;;;14.12;77.77
41218;BME280;26950;50.960;7.138;2024-03-23T01:07:09;99882.06;;;14.12;77.50
41218;BME280;26950;50.960;7.138;2024-03-23T01:09:35;99867.13;;;14.40;74.99
41218;BME280;26950;50.960;7.138;2024-03-23T01:12:05;99871.50;;;14.25;76.82
41218;BME280;26950;50.960;7.138;2024-03-23T01:14:32;99872.34;;;14.08;78.09
41218;BME280;26950;50.960;7.138;2024-03-23T01:16:58;99875.03;;;14.26;77.75
41218;BME280;26950;50.960;7.138;2024-03-23T01:19:24;99876.81;;;14.30;77.10
41218;BME280;26950;50.960;7.138;2024-03-23T01:21:49;99875.06;;;14.58;75.81
41218;BME280;26950;50.960;7.138;2024-03-23T01:24:16;99876.78;;;14.31;77.36
41218;BME280;26950;50.960;7.138;2024-03-23T01:26:41;99859.22;;;14.63;74.70
41218;BME280;26950;50.960;7.138;2024-03-23T01:29:09;99856.56;;;14.90;73.32
41218;BME280;26950;50.960;7.138;2024-03-23T01:31:35;99853.91;;;14.89;73.26
41218;BME280;26950;50.960;7.138;2024-03-23T01:34:01;99854.81;;;14.29;76.67
41218;BME280;26950;50.960;7.138;2024-03-23T01:36:28;99860.09;;;14.63;75.70
41218;BME280;26950;50.960;7.138;2024-03-23T01:38:54;99867.97;;;14.07;78.63
41218;BME280;26950;50.960;7.138;2024-03-23T01:41:20;99866.22;;;14.16;77.58
41218;BME280;26950;50.960;7.138;2024-03-23T01:43:47;99870.63;;;14.02;78.35
41218;BME280;26950;50.960;7.138;2024-03-23T01:46:13;99866.03;;;13.50;79.38
41218;BME280;26950;50.960;7.138;2024-03-23T01:48:40;99872.81;;;13.04;81.70
41218;BME280;26950;50.960;7.138;2024-03-23T01:51:06;99870.19;;;13.04;81.49
41218;BME280;26950;50.960;7.138;2024-03-23T01:53:33;99860.81;;;13.60;79.40
41218;BME280;26950;50.960;7.138;2024-03-23T01:55:58;99865.72;;;12.89;82.05
41218;BME280;26950;50.960;7.138;2024-03-23T01:58:25;99869.63;;;12.31;84.08
41218;BME280;26950;50.960;7.138;2024-03-23T02:00:50;99861.78;;;12.34;85.59
41218;BME280;26950;50.960;7.138;2024-03-23T02:03:24;99857.56;;;12.56;84.01
41218;BME280;26950;50.960;7.138;2024-03-23T02:05:51;99860.34;;;12.76;82.51
41218;BME280;26950;50.960;7.138;2024-03-23T02:08:20;99860.88;;;12.29;85.74
41218;BME280;26950;50.960;7.138;2024-03-23T02:10:46;99849.63;;;12.45;84.54
41218;BME280;26950;50.960;7.138;2024-03-23T02:13:14;99848.22;;;12.98;80.29
41218;BME280;26950;50.960;7.138;2024-03-23T02:15:39;99855.16;;;12.85;81.04
41218;BME280;26950;50.960;7.138;2024-03-23T02:18:07;99854.06;;;12.57;81.00
41218;BME280;26950;50.960;7.138;2024-03-23T02:20:34;99871.66;;;11.71;84.67
41218;BME280;26950;50.960;7.138;2024-03-23T02:23:02;99861.22;;;12.72;80.79
41218;BME280;26950;50.960;7.138;2024-03-23T02:25:28;99865.94;;;12.07;82.14
41218;BME280;26950;50.960;7.138;2024-03-23T02:27:54;99858.25;;;12.32;81.02
41218;BME280;26950;50.960;7.138;2024-03-23T02:30:20;99862.13;;;12.81;78.21
41218;BME280;26950;50.960;7.138;2024-03-23T02:32:47;99863.31;;;12.07;81.34
41218;BME280;26950;50.960;7.138;2024-03-23T02:35:12;99865.13;;;12.14;81.40
41218;BME280;26950;50.960;7.138;2024-03-23T02:37:39;99871.75;;;12.73;77.35
41218;BME280;26950;50.960;7.138;2024-03-23T02:40:06;99870.72;;;12.54;78.73
41218;BME280;26950;50.960;7.138;2024-03-23T02:42:33;99868.38;;;12.94;77.19
41218;BME280;26950;50.960;7.138;2024-03-23T02:44:59;99873.41;;;12.57;78.20
41218;BME280;26950;50.960;7.138;2024-03-23T02:47:25;99878.72;;;12.65;76.93
41218;BME280;26950;50.960;7.138;2024-03-23T02:49:51;99876.13;;;12.74;72.88
41218;BME280;26950;50.960;7.138;2024-03-23T02:52:17;99873.13;;;12.27;77.57
41218;BME280;26950;50.960;7.138;2024-03-23T02:54:43;99888.16;;;11.61;82.23
41218;BME280;26950;50.960;7.138;2024-03-23T02:57:11;99894.34;;;11.65;79.73
41218;BME280;26950;50.960;7.138;2024-03-23T02:59:37;99898.84;;;11.06;79.25
41218;BME280;26950;50.960;7.138;2024-03-23T03:02:04;99908.59;;;10.56;81.10
41218;BME280;26950;50.960;7.138;2024-03-23T03:04:30;99902.19;;;10.95;79.77
41218;BME280;26950;50.960;7.138;2024-03-23T03:06:56;99899.66;;;11.01;78.00
41218;BME280;26950;50.960;7.138;2024-03-23T03:09:22;99896.75;;;10.84;77.86
41218;BME280;26950;50.960;7.138;2024-03-23T03:11:48;99895.28;;;11.01;77.62
41218;BME280;26950;50.960;7.138;2024-03-23T03:14:15;99890.94;;;11.72;74.10
41218;BME280;26950;50.960;7.138;2024-03-23T03:16:42;99891.41;;;11.39;74.59
41218;BME280;26950;50.960;7.138;2024-03-23T03:19:07;99896.19;;;11.05;75.01
41218;BME280;26950;50.960;7.138;2024-03-23T03:21:35;99893.34;;;10.88;76.27
41218;BME280;26950;50.960;7.138;2024-03-23T03:24:01;99896.28;;;10.55;76.38
41218;BME280;26950;50.960;7.138;2024-03-23T03:26:28;99885.81;;;11.13;73.46
41218;BME280;26950;50.960;7.138;2024-03-23T03:28:53;99875.06;;;10.96;75.46
41218;BME280;26950;50.960;7.138;2024-03-23T03:31:21;99870.97;;;11.18;74.34
41218;BME280;26950;50.960;7.138;2024-03-23T03:33:47;99887.50;;;11.80;70.13
41218;BME280;26950;50.960;7.138;2024-03-23T03:36:16;99887.94;;;12.17;67.79
41218;BME280;26950;50.960;7.138;2024-03-23T03:38:41;99899.56;;;11.61;70.39
41218;BME280;26950;50.960;7.138;2024-03-23T03:41:08;99888.06;;;11.52;69.58
41218;BME280;26950;50.960;7.138;2024-03-23T03:43:33;99888.06;;;11.52;70.90
41218;BME280;26950;50.960;7.138;2024-03-23T03:46:00;99887.38;;;11.68;69.55
41218;BME280;26950;50.960;7.138;2024-03-23T03:48:28;99881.38;;;11.80;70.23
41218;BME280;26950;50.960;7.138;2024-03-23T03:50:55;99886.00;;;11.28;73.78
41218;BME280;26950;50.960;7.138;2024-03-23T03:53:20;99881.75;;;11.38;72.70
41218;BME280;26950;50.960;7.138;2024-03-23T03:55:47;99883.31;;;11.25;73.81
41218;BME280;26950;50.960;7.138;2024-03-23T03:58:13;99883.28;;;11.90;70.93
41218;BME280;26950;50.960;7.138;2024-03-23T04:00:39;99892.28;;;11.39;73.94
41218;BME280;26950;50.960;7.138;2024-03-23T04:03:05;99898.75;;;11.69;72.00
41218;BME280;26950;50.960;7.138;2024-03-23T04:05:33;99900.44;;;11.62;71.89
41218;BME280;26950;50.960;7.138;2024-03-23T04:07:58;99895.41;;;11.80;70.19
41218;BME280;26950;50.960;7.138;2024-03-23T04:10:25;99894.53;;;11.80;69.89
41218;BME280;26950;50.960;7.138;2024-03-23T04:12:51;99900.16;;;12.10;68.53
41218;BME280;26950;50.960;7.138;2024-03-23T04:15:18;99899.34;;;12.19;69.27
41218;BME280;26950;50.960;7.138;2024-03-23T04:17:44;99902.66;;;12.00;69.24
41218;BME280;26950;50.960;7.138;2024-03-23T04:20:11;99899.25;;;12.10;69.42
41218;BME280;26950;50.960;7.138;2024-03-23T04:22:40;99906.47;;;12.29;68.70
41218;BME280;26950;50.960;7.138;2024-03-23T04:25:06;99898.38;;;12.09;70.12
41218;BME280;26950;50.960;7.138;2024-03-23T04:27:32;99897.75;;;12.35;69.88
41218;BME280;26950;50.960;7.138;2024-03-23T04:29:59;99892.75;;;12.64;67.85
41218;BME280;26950;50.960;7.138;2024-03-23T04:32:26;99902.91;;;12.23;70.07
41218;BME280;26950;50.960;7.138;2024-03-23T04:34:54;99903.88;;;12.34;69.54
41218;BME280;26950;50.960;7.138;2024-03-23T04:37:19;99913.47;;;12.30;70.47
41218;BME280;26950;50.960;7.138;2024-03-23T04:39:47;99920.91;;;11.87;72.06
41218;BME280;26950;50.960;7.138;2024-03-23T04:42:14;99922.00;;;12.05;71.99
41218;BME280;26950;50.960;7.138;2024-03-23T04:44:41;99919.44;;;12.09;70.85
41218;BME280;26950;50.960;7.138;2024-03-23T04:47:08;99917.63;;;11.35;73.88
41218;BME280;26950;50.960;7.138;2024-03-23T04:49:34;99919.44;;;12.11;71.61
41218;BME280;26950;50.960;7.138;2024-03-23T04:52:02;99919.50;;;12.17;70.79
41218;BME280;26950;50.960;7.138;2024-03-23T04:54:29;99920.44;;;12.25;71.30
41218;BME280;26950;50.960;7.138;2024-03-23T04:56:55;99918.09;;;12.51;69.29
41218;BME280;26950;50.960;7.138;2024-03-23T04:59:22;99920.56;;;12.37;69.93
41218;BME280;26950;50.960;7.138;2024-03-23T05:01:47;99921.66;;;12.59;68.93
41218;BME280;26950;50.960;7.138;2024-03-23T05:04:14;99919.13;;;12.73;67.20
41218;BME280;26950;50.960;7.138;2024-03-23T05:06:39;99916.97;;;12.29;70.29
41218;BME280;26950;50.960;7.138;2024-03-23T05:09:06;99922.94;;;12.08;72.08
41218;BME280;26950;50.960;7.138;2024-03-23T05:11:32;99918.09;;;11.74;73.88
41218;BME280;26950;50.960;7.138;2024-03-23T05:14:00;99918.34;;;11.91;73.82
41218;BME280;26950;50.960;7.138;2024-03-23T05:16:26;99919.63;;;11.55;74.84
41218;BME280;26950;50.960;7.138;2024-03-23T05:18:52;99909.19;;;11.61;75.55
41218;BME280;26950;50.960;7.138;2024-03-23T05:21:18;99911.47;;;11.32;76.15
41218;BME280;26950;50.960;7.138;2024-03-23T05:23:44;99912.69;;;11.58;76.74
41218;BME280;26950;50.960;7.138;2024-03-23T05:26:10;99912.84;;;11.75;74.78
41218;BME280;26950;50.960;7.138;2024-03-23T05:28:36;99926.28;;;11.97;75.46
41218;BME280;26950;50.960;7.138;2024-03-23T05:31:03;99915.63;;;12.76;70.72
41218;BME280;26950;50.960;7.138;2024-03-23T05:33:30;99924.00;;;12.30;73.39
41218;BME280;26950;50.960;7.138;2024-03-23T05:35:59;99925.16;;;12.58;71.92
41218;BME280;26950;50.960;7.138;2024-03-23T05:38:26;99932.00;;;12.41;71.98
41218;BME280;26950;50.960;7.138;2024-03-23T05:40:55;99933.72;;;12.36;72.00
41218;BME280;26950;50.960;7.138;2024-03-23T05:43:21;99934.59;;;12.36;72.23
41218;BME280;26950;50.960;7.138;2024-03-23T05:45:53;99931.31;;;11.80;75.90
41218;BME280;26950;50.960;7.138;2024-03-23T05:48:21;99937.47;;;11.14;80.24
41218;BME280;26950;50.960;7.138;2024-03-23T05:50:47;99922.09;;;11.43;80.21
41218;BME280;26950;50.960;7.138;2024-03-23T05:53:14;99930.28;;;11.67;77.68
41218;BME280;26950;50.960;7.138;2024-03-23T05:55:40;99922.50;;;11.75;75.69
41218;BME280;26950;50.960;7.138;2024-03-23T05:58:06;99929.25;;;11.56;76.97
41218;BME280;26950;50.960;7.138;2024-03-23T06:00:32;99935.34;;;10.90;81.19
41218;BME280;26950;50.960;7.138;2024-03-23T06:02:58;99944.59;;;10.66;83.36
41218;BME280;26950;50.960;7.138;2024-03-23T06:05:25;99941.06;;;11.22;81.23
41218;BME280;26950;50.960;7.138;2024-03-23T06:07:52;99941.53;;;11.55;79.89
41218;BME280;26950;50.960;7.138;2024-03-23T06:10:18;99945.19;;;11.04;81.98
41218;BME280;26950;50.960;7.138;2024-03-23T06:12:46;99952.59;;;11.31;81.01
41218;BME280;26950;50.960;7.138;2024-03-23T06:15:11;99953.84;;;11.59;80.12
41218;BME280;26950;50.960;7.138;2024-03-23T06:17:38;99950.22;;;11.50;80.80
41218;BME280;26950;50.960;7.138;2024-03-23T06:20:04;99957.63;;;11.16;81.40
41218;BME280;26950;50.960;7.138;2024-03-23T06:22:33;99956.72;;;10.60;84.01
41218;BME280;26950;50.960;7.138;2024-03-23T06:24:58;99942.56;;;11.04;84.34
41218;BME280;26950;50.960;7.138;2024-03-23T06:27:25;99954.88;;;11.69;79.18
41218;BME280;26950;50.960;7.138;2024-03-23T06:29:50;99954.41;;;12.02;76.95
41218;BME280;26950;50.960;7.138;2024-03-23T06:32:17;99952.25;;;11.72;76.14
41218;BME280;26950;50.960;7.138;2024-03-23T06:34:43;99942.00;;;11.89;76.19
41218;BME280;26950;50.960;7.138;2024-03-23T06:37:10;99956.38;;;12.20;74.49
41218;BME280;26950;50.960;7.138;2024-03-23T06:39:37;99948.06;;;11.86;74.58
41218;BME280;26950;50.960;7.138;2024-03-23T06:42:04;99953.81;;;12.28;74.41
41218;BME280;26950;50.960;7.138;2024-03-23T06:44:29;99961.56;;;12.14;74.93
41218;BME280;26950;50.960;7.138;2024-03-23T06:46:56;99963.09;;;11.95;75.64
41218;BME280;26950;50.960;7.138;2024-03-23T06:49:22;99973.13;;;11.60;79.98
41218;BME280;26950;50.960;7.138;2024-03-23T06:51:49;99974.56;;;12.03;76.22
41218;BME280;26950;50.960;7.138;2024-03-23T06:54:15;99974.56;;;12.02;78.10
41218;BME280;26950;50.960;7.138;2024-03-23T06:56:43;99969.97;;;11.82;76.82
41218;BME280;26950;50.960;7.138;2024-03-23T06:59:09;99973.34;;;11.13;81.53
41218;BME280;26950;50.960;7.138;2024-03-23T07:01:35;99975.91;;;11.71;79.38
41218;BME280;26950;50.960;7.138;2024-03-23T07:04:01;99968.22;;;11.84;77.75
41218;BME280;26950;50.960;7.138;2024-03-23T07:06:29;99969.34;;;11.38;80.66
41218;BME280;26950;50.960;7.138;2024-03-23T07:08:54;99967.41;;;11.88;78.22
41218;BME280;26950;50.960;7.138;2024-03-23T07:11:21;99963.31;;;12.17;78.04
41218;BME280;26950;50.960;7.138;2024-03-23T07:13:49;99964.59;;;12.55;76.69
41218;BME280;26950;50.960;7.138;2024-03-23T07:16:16;99964.75;;;12.72;73.16
41218;BME280;26950;50.960;7.138;2024-03-23T07:18:42;99966.16;;;12.33;75.41
41218;BME280;26950;50.960;7.138;2024-03-23T07:21:08;99977.38;;;12.19;75.80
41218;BME280;26950;50.960;7.138;2024-03-23T07:23:34;99977.13;;;11.97;77.82
41218;BME280;26950;50.960;7.138;2024-03-23T07:26:01;99982.78;;;11.62;79.15
41218;BME280;26950;50.960;7.138;2024-03-23T07:28:27;99978.03;;;11.34;80.38
41218;BME280;26950;50.960;7.138;2024-03-23T07:31:05;99970.53;;;12.34;74.75
41218;BME280;26950;50.960;7.138;2024-03-23T07:33:32;99977.84;;;11.82;77.18
41218;BME280;26950;50.960;7.138;2024-03-23T07:35:58;99981.31;;;10.66;86.27
41218;BME280;26950;50.960;7.138;2024-03-23T07:38:26;99984.75;;;11.77;80.67
41218;BME280;26950;50.960;7.138;2024-03-23T07:40:55;99986.97;;;11.48;81.42
41218;BME280;26950;50.960;7.138;2024-03-23T07:43:28;99987.66;;;11.35;82.68
41218;BME280;26950;50.960;7.138;2024-03-23T07:45:54;99987.75;;;11.41;81.22
41218;BME280;26950;50.960;7.138;2024-03-23T07:48:21;99989.41;;;11.33;84.04
41218;BME280;26950;50.960;7.138;2024-03-23T07:50:57;99982.38;;;11.96;77.87
41218;BME280;26950;50.960;7.138;2024-03-23T07:53:22;99977.16;;;11.99;78.44
41218;BME280;26950;50.960;7.138;2024-03-23T07:55:54;99981.44;;;11.92;79.88
41218;BME280;26950;50.960;7.138;2024-03-23T07:58:19;99986.31;;;11.63;82.66
41218;BME280;26950;50.960;7.138;2024-03-23T08:00:46;99982.75;;;12.28;79.84
41218;BME280;26950;50.960;7.138;2024-03-23T08:03:11;99985.88;;;11.96;79.94
41218;BME280;26950;50.960;7.138;2024-03-23T08:05:39;99984.72;;;10.62;86.00
41218;BME280;26950;50.960;7.138;2024-03-23T08:08:05;99982.16;;;11.18;83.91
41218;BME280;26950;50.960;7.138;2024-03-23T08:10:32;99993.19;;;10.46;85.95
41218;BME280;26950;50.960;7.138;2024-03-23T08:12:57;99985.34;;;10.97;86.40
41218;BME280;26950;50.960;7.138;2024-03-23T08:15:24;99985.81;;;11.26;83.25
41218;BME280;26950;50.960;7.138;2024-03-23T08:17:49;99990.09;;;11.82;82.53
41218;BME280;26950;50.960;7.138;2024-03-23T08:20:16;99993.19;;;11.55;82.17
41218;BME280;26950;50.960;7.138;2024-03-23T08:22:43;99982.88;;;11.69;81.78
41218;BME280;26950;50.960;7.138;2024-03-23T08:25:09;99982.69;;;12.23;79.68
41218;BME280;26950;50.960;7.138;2024-03-23T08:27:35;99986.47;;;13.61;73.03
41218;BME280;26950;50.960;7.138;2024-03-23T08:30:01;99988.13;;;13.40;73.00
41218;BME280;26950;50.960;7.138;2024-03-23T08:32:27;99983.06;;;13.80;69.09
41218;BME280;26950;50.960;7.138;2024-03-23T08:34:54;99986.63;;;12.66;72.83
41218;BME280;26950;50.960;7.138;2024-03-23T08:37:20;99990.66;;;13.25;72.05
41218;BME280;26950;50.960;7.138;2024-03-23T08:39:50;99986.47;;;13.64;64.35
41218;BME280;26950;50.960;7.138;2024-03-23T08:42:16;99990.78;;;12.41;68.57
41218;BME280;26950;50.960;7.138;2024-03-23T08:44:42;99989.75;;;12.29;69.57
41218;BME280;26950;50.960;7.138;2024-03-23T08:47:11;99998.09;;;11.93;67.55
41218;BME280;26950;50.960;7.138;2024-03-23T08:49:38;99994.66;;;11.95;69.34
41218;BME280;26950;50.960;7.138;2024-03-23T08:52:04;99992.31;;;12.23;67.13
41218;BME280;26950;50.960;7.138;2024-03-23T08:54:30;100002.72;;;12.12;66.80
41218;BME280;26950;50.960;7.138;2024-03-23T08:56:57;99991.44;;;11.55;65.76
41218;BME280;26950;50.960;7.138;2024-03-23T08:59:24;100005.13;;;11.31;66.43
41218;BME280;26950;50.960;7.138;2024-03-23T09:01:50;100009.81;;;11.52;66.96
41218;BME280;26950;50.960;7.138;2024-03-23T09:04:16;100014.19;;;12.19;65.14
41218;BME280;26950;50.960;7.138;2024-03-23T09:06:42;100002.56;;;12.82;64.56
41218;BME280;26950;50.960;7.138;2024-03-23T09:09:08;99993.53;;;12.57;64.83
41218;BME280;26950;50.960;7.138;2024-03-23T09:11:34;99994.41;;;12.53;63.69
41218;BME280;26950;50.960;7.138;2024-03-23T09:14:02;99992.72;;;12.58;64.37
41218;BME280;26950;50.960;7.138;2024-03-23T09:16:27;99987.66;;;12.82;62.54
41218;BME280;26950;50.960;7.138;2024-03-23T09:18:54;99979.00;;;12.97;62.69
41218;BME280;26950;50.960;7.138;2024-03-23T09:21:19;99976.78;;;13.57;59.08
41218;BME280;26950;50.960;7.138;2024-03-23T09:23:46;99983.69;;;13.38;59.99
41218;BME280;26950;50.960;7.138;2024-03-23T09:26:12;99981.38;;;12.68;61.67
41218;BME280;26950;50.960;7.138;2024-03-23T09:28:38;99977.97;;;12.80;62.25
41218;BME280;26950;50.960;7.138;2024-03-23T09:31:06;99983.75;;;13.42;60.84
41218;BME280;26950;50.960;7.138;2024-03-23T09:33:33;99985.09;;;12.02;61.67
41218;BME280;26950;50.960;7.138;2024-03-23T09:36:02;99987.94;;;11.55;63.85
41218;BME280;26950;50.960;7.138;2024-03-23T09:38:29;99989.03;;;11.71;61.53
41218;BME280;26950;50.960;7.138;2024-03-23T09:40:55;99981.81;;;11.54;62.92
41218;BME280;26950;50.960;7.138;2024-03-23T09:43:21;99998.56;;;11.05;66.30
41218;BME280;26950;50.960;7.138;2024-03-23T09:45:47;99989.75;;;11.00;65.39
41218;BME280;26950;50.960;7.138;2024-03-23T09:48:15;99983.69;;;11.04;65.48
41218;BME280;26950;50.960;7.138;2024-03-23T09:50:42;99980.84;;;11.48;65.92
41218;BME280;26950;50.960;7.138;2024-03-23T09:53:10;99966.34;;;12.52;61.94
41218;BME280;26950;50.960;7.138;2024-03-23T09:55:37;99967.31;;;13.98;58.14
41218;BME280;26950;50.960;7.138;2024-03-23T09:58:05;99955.97;;;14.24;56.24
41218;BME280;26950;50.960;7.138;2024-03-23T10:00:30;99963.09;;;14.52;51.84
41218;BME280;26950;50.960;7.138;2024-03-23T10:02:57;99948.06;;;14.33;52.43
41218;BME280;26950;50.960;7.138;2024-03-23T10:08:17;99946.31;;;15.37;50.25
41218;BME280;26950;50.960;7.138;2024-03-23T10:10:44;99948.00;;;15.58;48.60
41218;BME280;26950;50.960;7.138;2024-03-23T10:13:11;99952.53;;;15.09;47.11
41218;BME280;26950;50.960;7.138;2024-03-23T10:15:38;99956.84;;;14.23;48.21
41218;BME280;26950;50.960;7.138;2024-03-23T10:18:17;99957.69;;;12.68;50.10
41218;BME280;26950;50.960;7.138;2024-03-23T10:20:50;99953.63;;;13.10;51.58
41218;BME280;26950;50.960;7.138;2024-03-23T10:23:17;99946.38;;;15.05;48.26
41218;BME280;26950;50.960;7.138;2024-03-23T10:25:44;99942.69;;;15.80;46.06
41218;BME280;26950;50.960;7.138;2024-03-23T10:28:11;99951.59;;;14.35;46.58
41218;BME280;26950;50.960;7.138;2024-03-23T10:30:37;99954.81;;;13.53;47.97
41218;BME280;26950;50.960;7.138;2024-03-23T10:33:07;99954.22;;;12.75;49.11
41218;BME280;26950;50.960;7.138;2024-03-23T10:35:34;99945.44;;;12.73;48.79
41218;BME280;26950;50.960;7.138;2024-03-23T10:38:00;99954.47;;;12.07;50.78
41218;BME280;26950;50.960;7.138;2024-03-23T10:40:29;99941.41;;;12.18;49.88
41218;BME280;26950;50.960;7.138;2024-03-23T10:42:57;99933.66;;;12.30;50.45
41218;BME280;26950;50.960;7.138;2024-03-23T10:45:24;99944.91;;;12.13;51.04
41218;BME280;26950;50.960;7.138;2024-03-23T10:47:50;99952.19;;;12.43;50.86
41218;BME280;26950;50.960;7.138;2024-03-23T10:50:17;99965.16;;;12.25;50.16
41218;BME280;26950;50.960;7.138;2024-03-23T10:52:46;99983.78;;;11.69;52.40
41218;BME280;26950;50.960;7.138;2024-03-23T10:55:17;99987.66;;;10.79;58.47
41218;BME280;26950;50.960;7.138;2024-03-23T10:57:49;99981.50;;;11.31;59.65
41218;BME280;26950;50.960;7.138;2024-03-23T11:00:17;99988.63;;;10.86;62.92
41218;BME280;26950;50.960;7.138;2024-03-23T11:02:43;99987.47;;;11.23;62.75
41218;BME280;26950;50.960;7.138;2024-03-23T11:05:28;100019.97;;;11.28;62.04
41218;BME280;26950;50.960;7.138;2024-03-23T11:07:54;100026.66;;;10.59;64.53
41218;BME280;26950;50.960;7.138;2024-03-23T11:10:27;100027.78;;;10.73;62.51
41218;BME280;26950;50.960;7.138;2024-03-23T11:12:56;100029.47;;;11.21;60.54
41218;BME280;26950;50.960;7.138;2024-03-23T11:15:22;100059.28;;;11.23;59.75
41218;BME280;26950;50.960;7.138;2024-03-23T11:18:02;100050.25;;;10.58;63.30
41218;BME280;26950;50.960;7.138;2024-03-23T11:20:33;100032.53;;;10.44;65.79
41218;BME280;26950;50.960;7.138;2024-03-23T11:22:59;100029.22;;;11.06;63.58
41218;BME280;26950;50.960;7.138;2024-03-23T11:25:27;100022.13;;;12.22;61.03
41218;BME280;26950;50.960;7.138;2024-03-23T11:27:53;100012.63;;;12.36;60.93
41218;BME280;26950;50.960;7.138;2024-03-23T11:30:22;100023.84;;;11.56;64.79
41218;BME280;26950;50.960;7.138;2024-03-23T11:32:49;100013.19;;;14.40;58.06
41218;BME280;26950;50.960;7.138;2024-03-23T11:35:26;100006.03;;;14.06;55.21
41218;BME280;26950;50.960;7.138;2024-03-23T11:38:06;100027.94;;;12.72;58.03
41218;BME280;26950;50.960;7.138;2024-03-23T11:40:33;100020.25;;;12.10;61.29
41218;BME280;26950;50.960;7.138;2024-03-23T11:43:00;100030.63;;;10.86;62.10
41218;BME280;26950;50.960;7.138;2024-03-23T11:45:28;100017.41;;;10.81;63.10
41218;BME280;26950;50.960;7.138;2024-03-23T11:48:05;100004.47;;;11.46;60.45
41218;BME280;26950;50.960;7.138;2024-03-23T11:50:32;99998.34;;;11.46;61.54
41218;BME280;26950;50.960;7.138;2024-03-23T11:53:14;99997.19;;;11.89;59.18
41218;BME280;26950;50.960;7.138;2024-03-23T11:55:45;99992.34;;;12.24;59.78
41218;BME280;26950;50.960;7.138;2024-03-23T11:58:12;99983.13;;;11.84;60.06
41218;BME280;26950;50.960;7.138;2024-03-23T12:00:39;99972.13;;;13.19;56.26
41218;BME280;26950;50.960;7.138;2024-03-23T12:03:05;99980.25;;;13.46;54.93
41218;BME280;26950;50.960;7.138;2024-03-23T12:05:33;99982.72;;;13.20;56.91
41218;BME280;26950;50.960;7.138;2024-03-23T12:08:18;99972.91;;;13.06;56.94
41218;BME280;26950;50.960;7.138;2024-03-23T12:10:47;99974.56;;;12.93;58.71
41218;BME280;26950;50.960;7.138;2024-03-23T12:13:15;99990.56;;;12.20;63.85
41218;BME280;26950;50.960;7.138;2024-03-23T12:15:44;99988.34;;;11.22;72.46
41218;BME280;26950;50.960;7.138;2024-03-23T12:18:10;99990.25;;;10.77;72.70
41218;BME280;26950;50.960;7.138;2024-03-23T12:20:37;99978.09;;;11.39;69.15
41218;BME280;26950;50.960;7.138;2024-03-23T12:23:07;99978.81;;;11.28;68.48
41218;BME280;26950;50.960;7.138;2024-03-23T12:25:34;99977.72;;;10.61;72.10
41218;BME280;26950;50.960;7.138;2024-03-23T12:28:00;99965.78;;;11.38;67.79
41218;BME280;26950;50.960;7.138;2024-03-23T12:30:27;99958.22;;;11.59;67.64
41218;BME280;26950;50.960;7.138;2024-03-23T12:32:53;99961.78;;;12.35;67.46
41218;BME280;26950;50.960;7.138;2024-03-23T12:35:20;99966.59;;;11.96;67.64
41218;BME280;26950;50.960;7.138;2024-03-23T12:37:45;99970.34;;;12.19;67.97
41218;BME280;26950;50.960;7.138;2024-03-23T12:40:12;99996.06;;;11.11;71.49
41218;BME280;26950;50.960;7.138;2024-03-23T12:42:37;100012.34;;;10.42;75.06
41218;BME280;26950;50.960;7.138;2024-03-23T12:45:05;100008.97;;;10.47;74.03
41218;BME280;26950;50.960;7.138;2024-03-23T12:47:30;100030.19;;;10.17;76.75
41218;BME280;26950;50.960;7.138;2024-03-23T12:49:58;100041.72;;;9.83;80.69
41218;BME280;26950;50.960;7.138;2024-03-23T12:52:24;100054.34;;;10.01;80.03
41218;BME280;26950;50.960;7.138;2024-03-23T12:54:54;100033.56;;;9.30;76.88
41218;BME280;26950;50.960;7.138;2024-03-23T12:57:21;100052.84;;;9.34;77.36
41218;BME280;26950;50.960;7.138;2024-03-23T12:59:48;100044.03;;;10.10;73.57
41218;BME280;26950;50.960;7.138;2024-03-23T13:02:16;100012.31;;;9.96;74.17
41218;BME280;26950;50.960;7.138;2024-03-23T13:04:42;100011.78;;;10.13;76.09
41218;BME280;26950;50.960;7.138;2024-03-23T13:07:10;99996.63;;;10.42;72.27
41218;BME280;26950;50.960;7.138;2024-03-23T13:09:36;99988.59;;;10.83;70.92
41218;BME280;26950;50.960;7.138;2024-03-23T13:12:02;99985.09;;;11.38;70.50
41218;BME280;26950;50.960;7.138;2024-03-23T13:14:29;99984.00;;;11.86;69.03
41218;BME280;26950;50.960;7.138;2024-03-23T13:16:54;99988.81;;;12.22;64.22
41218;BME280;26950;50.960;7.138;2024-03-23T13:19:21;99980.84;;;12.16;62.09
41218;BME280;26950;50.960;7.138;2024-03-23T13:21:52;99986.88;;;11.42;65.49
41218;BME280;26950;50.960;7.138;2024-03-23T13:24:22;99978.72;;;11.22;65.50
41218;BME280;26950;50.960;7.138;2024-03-23T13:26:49;99976.13;;;10.69;64.48
41218;BME280;26950;50.960;7.138;2024-03-23T13:29:17;99976.25;;;10.75;65.94
41218;BME280;26950;50.960;7.138;2024-03-23T13:31:42;99967.91;;;11.01;61.27
41218;BME280;26950;50.960;7.138;2024-03-23T13:34:09;99966.94;;;11.56;62.20
41218;BME280;26950;50.960;7.138;2024-03-23T13:36:34;99961.59;;;12.19;58.70
41218;BME280;26950;50.960;7.138;2024-03-23T13:39:02;99951.88;;;12.13;59.87
41218;BME280;26950;50.960;7.138;2024-03-23T13:41:32;99945.34;;;12.62;59.07
41218;BME280;26950;50.960;7.138;2024-03-23T13:43:58;99949.31;;;12.19;59.16
41218;BME280;26950;50.960;7.138;2024-03-23T13:46:24;99945.66;;;12.06;60.10
41218;BME280;26950;50.960;7.138;2024-03-23T13:48:50;99940.88;;;11.08;60.85
41218;BME280;26950;50.960;7.138;2024-03-23T13:51:23;99940.97;;;11.16;59.74
41218;BME280;26950;50.960;7.138;2024-03-23T13:53:49;99943.38;;;12.37;57.38
41218;BME280;26950;50.960;7.138;2024-03-23T13:56:15;99935.88;;;11.92;58.95